Time;durP1;ratioP1;P1;durP2;ratioP2;P2;SDS_P1;SDS_P2;PMS_P1;PMS_P2;Temp;Humidity;BMP_temperature;BMP_pressure;BME280_temperature;BME280_humidity;BME280_pressure;Samples;Min_cycle;Max_cycle;Signal;HPM_P1;HPM_P2
2022/05/02 00:02:25;;;;;;;;;;;12.60;78.70;;;;;;5054712;28;19932;-69
2022/05/02 00:04:53;;;;;;;;;;;12.60;78.80;;;;;;5056216;28;20316;-68
2022/05/02 00:07:19;;;;;;;;;;;12.60;78.80;;;;;;5060077;28;20297;-68
2022/05/02 00:09:46;;;;;;;;;;;12.50;78.30;;;;;;5059429;28;19928;-68
2022/05/02 00:12:12;;;;;;;;;;;12.50;79.00;;;;;;5057740;28;20007;-67
2022/05/02 00:14:39;;;;;;;;;;;12.50;79.10;;;;;;5056750;28;19936;-67
2022/05/02 00:17:05;;;;;;;;;;;12.40;79.10;;;;;;5055919;28;20408;-69
2022/05/02 00:19:32;;;;;;;;;;;12.40;79.30;;;;;;5060532;28;20615;-67
2022/05/02 00:22:00;;;;;;;;;;;12.40;79.30;;;;;;5057982;28;19932;-67
2022/05/02 00:24:26;;;;;;;;;;;12.30;79.30;;;;;;5060139;28;19928;-68
2022/05/02 00:26:53;;;;;;;;;;;12.30;79.50;;;;;;5059991;28;19986;-68
2022/05/02 00:29:19;;;;;;;;;;;12.30;79.60;;;;;;5064320;28;19962;-68
2022/05/02 00:31:46;;;;;;;;;;;12.30;79.70;;;;;;5060547;28;20030;-69
2022/05/02 00:34:12;;;;;;;;;;;12.20;79.70;;;;;;5065528;28;19931;-68
2022/05/02 00:36:39;;;;;;;;;;;12.20;79.70;;;;;;5061128;28;19932;-68
2022/05/02 00:39:07;;;;;;;;;;;12.20;79.80;;;;;;5058618;28;20420;-69
2022/05/02 00:41:34;;;;;;;;;;;12.10;79.80;;;;;;5059118;28;19928;-68
2022/05/02 00:44:00;;;;;;;;;;;12.10;79.90;;;;;;5061482;28;19932;-68
2022/05/02 00:46:27;;;;;;;;;;;12.10;80.00;;;;;;5062207;28;19939;-67
2022/05/02 00:48:54;;;;;;;;;;;12.10;80.00;;;;;;5056130;28;19978;-69
2022/05/02 00:51:21;;;;;;;;;;;12.00;80.20;;;;;;5064611;28;19936;-67
2022/05/02 00:53:49;;;;;;;;;;;12.00;80.20;;;;;;5058592;28;19982;-69
2022/05/02 00:56:17;;;;;;;;;;;12.00;80.20;;;;;;5051872;28;19955;-67
2022/05/02 00:58:45;;;;;;;;;;;11.90;79.70;;;;;;5057668;28;20490;-69
2022/05/02 01:01:11;;;;;;;;;;;11.90;80.30;;;;;;5060113;28;20003;-68
2022/05/02 01:03:38;;;;;;;;;;;11.90;80.30;;;;;;5062549;28;19982;-68
2022/05/02 01:08:48;;;;;;;;;;;11.90;80.50;;;;;;5061454;28;19975;-67
2022/05/02 01:11:15;;;;;;;;;;;11.80;80.40;;;;;;5056848;28;20445;-68
2022/05/02 01:13:44;;;;;;;;;;;11.80;80.50;;;;;;5061295;28;20015;-66
2022/05/02 01:16:12;;;;;;;;;;;11.80;80.60;;;;;;5060614;28;20408;-67
2022/05/02 01:18:39;;;;;;;;;;;11.70;80.60;;;;;;5062016;28;19935;-69
2022/05/02 01:21:15;;;;;;;;;;;11.70;80.80;;;;;;5063979;28;20481;-68
2022/05/02 01:23:41;;;;;;;;;;;11.70;80.90;;;;;;5058646;28;19971;-67
2022/05/02 01:26:08;;;;;;;;;;;11.70;81.10;;;;;;5062579;28;19982;-67
2022/05/02 01:28:40;;;;;;;;;;;11.70;81.20;;;;;;5058503;28;19933;-68
2022/05/02 01:31:07;;;;;;;;;;;11.60;81.20;;;;;;5056449;28;20602;-68
2022/05/02 01:33:34;;;;;;;;;;;11.60;81.30;;;;;;5062332;28;19928;-68
2022/05/02 01:36:00;;;;;;;;;;;11.60;81.30;;;;;;5056493;28;19986;-68
2022/05/02 01:38:28;;;;;;;;;;;11.50;81.30;;;;;;5062345;28;19928;-66
2022/05/02 01:40:55;;;;;;;;;;;11.50;81.40;;;;;;5058854;28;20454;-68
2022/05/02 01:43:21;;;;;;;;;;;11.50;81.50;;;;;;5059502;28;19929;-69
2022/05/02 01:45:48;;;;;;;;;;;11.50;81.50;;;;;;5062395;28;19928;-68
2022/05/02 01:48:15;;;;;;;;;;;11.50;81.60;;;;;;5057945;28;19944;-68
2022/05/02 01:50:41;;;;;;;;;;;11.50;81.70;;;;;;5061134;28;19990;-67
2022/05/02 01:56:12;;;;;;;;;;;11.40;81.80;;;;;;5048641;28;19931;-68
2022/05/02 01:58:38;;;;;;;;;;;11.40;81.80;;;;;;5060336;28;19924;-67
2022/05/02 02:01:05;;;;;;;;;;;11.30;81.80;;;;;;5060327;28;19932;-68
2022/05/02 02:03:31;;;;;;;;;;;11.30;81.70;;;;;;5060765;28;19982;-66
2022/05/02 02:05:58;;;;;;;;;;;11.30;81.80;;;;;;5057614;28;19936;-66
2022/05/02 02:08:26;;;;;;;;;;;11.30;81.90;;;;;;5060081;28;19928;-66
2022/05/02 02:10:54;;;;;;;;;;;11.20;81.90;;;;;;5052428;28;19928;-68
2022/05/02 02:13:22;;;;;;;;;;;11.20;82.00;;;;;;5059114;28;20025;-68
2022/05/02 02:15:48;;;;;;;;;;;11.20;82.00;;;;;;5060021;28;19936;-67
2022/05/02 02:18:15;;;;;;;;;;;11.20;82.10;;;;;;5062610;28;19932;-67
2022/05/02 02:20:43;;;;;;;;;;;11.10;82.00;;;;;;5057393;28;19935;-67
2022/05/02 02:23:09;;;;;;;;;;;11.20;82.10;;;;;;5051505;28;19935;-66
2022/05/02 02:25:37;;;;;;;;;;;11.00;82.00;;;;;;5053675;28;19928;-68
2022/05/02 02:28:04;;;;;;;;;;;11.10;82.10;;;;;;5057469;28;19928;-68
2022/05/02 02:30:32;;;;;;;;;;;11.10;82.10;;;;;;5060999;28;20594;-68
2022/05/02 02:32:59;;;;;;;;;;;11.10;82.00;;;;;;5055978;28;19928;-69
2022/05/02 02:35:26;;;;;;;;;;;11.00;82.10;;;;;;5061860;28;19935;-68
2022/05/02 02:37:53;;;;;;;;;;;11.00;82.20;;;;;;5047552;28;19928;-67
2022/05/02 02:40:19;;;;;;;;;;;10.90;82.10;;;;;;5054951;28;19935;-67
2022/05/02 02:42:46;;;;;;;;;;;10.90;82.10;;;;;;5057563;28;19932;-67
2022/05/02 02:45:13;;;;;;;;;;;10.90;82.20;;;;;;5053096;28;19929;-67
2022/05/02 02:47:42;;;;;;;;;;;10.90;82.20;;;;;;5056001;28;20399;-67
2022/05/02 02:50:09;;;;;;;;;;;10.90;82.20;;;;;;5061203;28;20023;-68
2022/05/02 02:52:35;;;;;;;;;;;10.80;82.20;;;;;;5057492;28;20419;-68
2022/05/02 02:55:02;;;;;;;;;;;10.80;82.40;;;;;;5051473;28;19944;-68
2022/05/02 02:57:28;;;;;;;;;;;10.80;82.30;;;;;;5056305;28;20474;-68
2022/05/02 02:59:55;;;;;;;;;;;10.80;83.10;;;;;;5062130;28;19933;-68
2022/05/02 03:02:22;;;;;;;;;;;10.70;82.40;;;;;;5059993;28;19928;-68
2022/05/02 03:07:34;;;;;;;;;;;10.70;82.30;;;;;;5057833;28;20387;-68
2022/05/02 03:10:01;;;;;;;;;;;10.70;82.40;;;;;;5055195;28;19935;-68
2022/05/02 03:12:27;;;;;;;;;;;10.70;82.40;;;;;;5051157;28;19929;-68
2022/05/02 03:14:54;;;;;;;;;;;10.60;82.40;;;;;;5061837;28;20299;-68
2022/05/02 03:17:20;;;;;;;;;;;10.60;83.20;;;;;;5056359;28;19943;-68
2022/05/02 03:19:47;;;;;;;;;;;10.60;82.60;;;;;;5059567;28;19929;-67
2022/05/02 03:22:15;;;;;;;;;;;10.60;82.60;;;;;;5055933;28;19936;-68
2022/05/02 03:24:42;;;;;;;;;;;10.60;82.70;;;;;;5052811;28;19936;-66
2022/05/02 03:27:08;;;;;;;;;;;10.50;82.60;;;;;;5058256;28;19928;-68
2022/05/02 03:29:36;;;;;;;;;;;10.50;82.70;;;;;;5061296;28;19936;-68
2022/05/02 03:32:02;;;;;;;;;;;10.50;82.70;;;;;;5053201;28;19928;-68
2022/05/02 03:34:29;;;;;;;;;;;10.50;82.80;;;;;;5054511;28;20534;-68
2022/05/02 03:36:55;;;;;;;;;;;10.40;82.80;;;;;;5057254;28;19954;-68
2022/05/02 03:39:23;;;;;;;;;;;10.40;82.80;;;;;;5053930;28;19928;-68
2022/05/02 03:41:50;;;;;;;;;;;10.40;82.80;;;;;;5054705;28;19932;-67
2022/05/02 03:44:17;;;;;;;;;;;10.40;82.80;;;;;;5059973;28;19969;-67
2022/05/02 03:46:43;;;;;;;;;;;10.40;82.80;;;;;;5052703;28;20423;-67
2022/05/02 03:49:10;;;;;;;;;;;10.30;82.80;;;;;;5055685;28;19933;-67
2022/05/02 03:51:36;;;;;;;;;;;10.30;82.80;;;;;;5058956;28;19937;-68
2022/05/02 03:54:03;;;;;;;;;;;10.30;82.80;;;;;;5056411;28;19936;-69
2022/05/02 03:56:31;;;;;;;;;;;10.30;82.80;;;;;;5056050;28;19932;-68
2022/05/02 03:58:58;;;;;;;;;;;10.30;82.90;;;;;;5059738;28;20508;-68
2022/05/02 04:01:24;;;;;;;;;;;10.20;82.80;;;;;;5058553;28;19929;-68
2022/05/02 04:03:51;;;;;;;;;;;10.20;82.90;;;;;;5055180;28;19944;-68
2022/05/02 04:06:17;;;;;;;;;;;10.20;82.90;;;;;;5060043;28;20015;-68
2022/05/02 04:08:44;;;;;;;;;;;10.10;82.90;;;;;;5057772;28;19935;-67
2022/05/02 04:11:10;;;;;;;;;;;10.20;82.90;;;;;;5051546;28;19936;-67
2022/05/02 04:13:38;;;;;;;;;;;10.10;83.00;;;;;;5054935;28;19928;-67
2022/05/02 04:16:05;;;;;;;;;;;10.10;83.00;;;;;;5062740;28;19928;-67
2022/05/02 04:18:31;;;;;;;;;;;10.10;83.10;;;;;;5064326;28;19928;-67
2022/05/02 04:20:58;;;;;;;;;;;10.10;83.20;;;;;;5064343;28;19935;-67
2022/05/02 04:23:25;;;;;;;;;;;10.00;83.20;;;;;;5063558;28;19928;-68
2022/05/02 04:25:51;;;;;;;;;;;10.00;83.20;;;;;;5064258;28;19924;-67
2022/05/02 04:28:18;;;;;;;;;;;10.00;83.20;;;;;;5063485;28;19929;-68
2022/05/02 04:30:46;;;;;;;;;;;10.00;83.30;;;;;;5062609;28;19928;-68
2022/05/02 04:33:13;;;;;;;;;;;10.00;83.40;;;;;;5058138;28;19928;-66
2022/05/02 04:35:39;;;;;;;;;;;9.90;83.30;;;;;;5063264;28;19963;-66
2022/05/02 04:38:06;;;;;;;;;;;10.00;83.50;;;;;;5061284;28;19939;-68
2022/05/02 04:40:33;;;;;;;;;;;9.90;83.40;;;;;;5059735;28;19939;-68
2022/05/02 04:42:59;;;;;;;;;;;9.90;83.40;;;;;;5059151;28;19944;-67
2022/05/02 04:45:26;;;;;;;;;;;9.90;83.50;;;;;;5064195;28;19932;-68
2022/05/02 04:47:54;;;;;;;;;;;9.90;83.50;;;;;;5061695;28;19936;-68
2022/05/02 04:50:20;;;;;;;;;;;9.90;83.60;;;;;;5064558;28;19932;-68
2022/05/02 04:52:47;;;;;;;;;;;9.90;83.60;;;;;;5059144;28;19933;-68
2022/05/02 04:55:14;;;;;;;;;;;9.80;83.60;;;;;;5057454;28;19940;-67
2022/05/02 04:57:41;;;;;;;;;;;9.80;83.60;;;;;;5059338;28;19932;-67
2022/05/02 05:00:08;;;;;;;;;;;9.80;83.70;;;;;;5051648;28;19936;-67
2022/05/02 05:02:35;;;;;;;;;;;9.80;83.70;;;;;;5060176;28;20538;-68
2022/05/02 05:05:03;;;;;;;;;;;9.80;83.70;;;;;;5056371;28;19929;-66
2022/05/02 05:07:29;;;;;;;;;;;9.70;83.70;;;;;;5053407;28;19928;-67
2022/05/02 05:09:56;;;;;;;;;;;9.70;83.70;;;;;;5051986;28;19929;-67
2022/05/02 05:12:29;;;;;;;;;;;9.70;83.70;;;;;;5059782;28;19924;-68
2022/05/02 05:17:50;;;;;;;;;;;9.70;83.80;;;;;;5062777;28;20617;-68
2022/05/02 05:20:21;;;;;;;;;;;9.70;83.90;;;;;;5062024;28;20699;-67
2022/05/02 05:23:02;;;;;;;;;;;9.70;83.90;;;;;;5062340;28;19929;-68
2022/05/02 05:25:40;;;;;;;;;;;9.60;83.90;;;;;;5054632;28;20482;-65
2022/05/02 05:28:17;;;;;;;;;;;9.60;84.00;;;;;;5063472;28;20101;-68
2022/05/02 05:30:45;;;;;;;;;;;9.60;84.00;;;;;;5062438;28;19929;-67
2022/05/02 05:33:17;;;;;;;;;;;9.60;84.10;;;;;;5058386;28;19929;-67
2022/05/02 05:35:52;;;;;;;;;;;9.60;84.10;;;;;;5063344;28;19935;-68
2022/05/02 05:38:24;;;;;;;;;;;9.60;84.10;;;;;;5055501;28;19928;-67
2022/05/02 05:40:57;;;;;;;;;;;9.60;84.20;;;;;;5058721;28;19959;-67
2022/05/02 05:43:35;;;;;;;;;;;9.60;85.00;;;;;;5056001;28;20019;-67
2022/05/02 05:46:20;;;;;;;;;;;9.60;84.30;;;;;;5057677;28;19929;-68
2022/05/02 05:48:54;;;;;;;;;;;9.60;84.40;;;;;;5062428;28;19929;-68
2022/05/02 05:51:28;;;;;;;;;;;9.60;84.40;;;;;;5060084;28;19932;-66
2022/05/02 05:53:58;;;;;;;;;;;9.60;84.50;;;;;;5057241;28;19932;-69
2022/05/02 05:56:33;;;;;;;;;;;9.60;84.60;;;;;;5053196;28;19939;-68
2022/05/02 05:59:06;;;;;;;;;;;9.50;84.50;;;;;;5058460;28;19932;-68
2022/05/02 06:01:40;;;;;;;;;;;9.50;84.50;;;;;;5059574;28;20323;-68
2022/05/02 06:04:07;;;;;;;;;;;9.50;84.60;;;;;;5056792;28;19929;-67
2022/05/02 06:06:37;;;;;;;;;;;9.50;84.60;;;;;;5050925;28;20031;-68
2022/05/02 06:09:04;;;;;;;;;;;9.60;84.70;;;;;;5056554;28;19933;-68
2022/05/02 06:11:30;;;;;;;;;;;9.50;84.70;;;;;;5051695;28;20684;-68
2022/05/02 06:13:59;;;;;;;;;;;9.50;84.70;;;;;;5062684;28;19932;-67
2022/05/02 06:19:14;;;;;;;;;;;9.60;84.80;;;;;;5062625;28;19932;-67
2022/05/02 06:21:43;;;;;;;;;;;9.50;84.90;;;;;;5060859;28;19928;-67
2022/05/02 06:24:10;;;;;;;;;;;9.60;84.90;;;;;;5057543;28;19933;-68
2022/05/02 06:26:38;;;;;;;;;;;9.60;85.00;;;;;;5058686;28;19943;-68
2022/05/02 06:29:06;;;;;;;;;;;9.50;84.90;;;;;;5056279;28;19932;-67
2022/05/02 06:31:36;;;;;;;;;;;9.60;85.00;;;;;;5055532;28;19932;-68
2022/05/02 06:34:03;;;;;;;;;;;9.60;85.00;;;;;;5061008;28;19939;-67
2022/05/02 06:36:36;;;;;;;;;;;9.60;85.10;;;;;;5058800;28;19929;-68
2022/05/02 06:39:05;;;;;;;;;;;9.60;85.10;;;;;;5058884;28;20350;-68
2022/05/02 06:41:42;;;;;;;;;;;9.60;85.20;;;;;;5057775;28;20407;-67
2022/05/02 06:44:12;;;;;;;;;;;9.60;85.30;;;;;;5060928;28;19928;-68
2022/05/02 06:46:43;;;;;;;;;;;9.60;85.40;;;;;;5060253;28;20592;-67
2022/05/02 06:49:12;;;;;;;;;;;9.60;85.50;;;;;;5059782;28;19978;-68
2022/05/02 06:51:39;;;;;;;;;;;9.60;85.60;;;;;;5058503;28;19935;-68
2022/05/02 06:54:26;;;;;;;;;;;9.60;85.60;;;;;;5059303;28;19929;-67
2022/05/02 06:56:56;;;;;;;;;;;9.60;85.70;;;;;;5056794;28;19938;-67
2022/05/02 06:59:32;;;;;;;;;;;9.60;86.00;;;;;;5051463;28;19928;-68
2022/05/02 07:02:04;;;;;;;;;;;9.70;86.00;;;;;;5055284;28;19986;-68
2022/05/02 07:04:36;;;;;;;;;;;9.70;86.10;;;;;;5055620;28;20347;-68
2022/05/02 07:07:11;;;;;;;;;;;9.70;86.10;;;;;;5061350;28;19935;-68
2022/05/02 07:09:42;;;;;;;;;;;9.80;86.00;;;;;;5054277;28;19933;-68
2022/05/02 07:12:13;;;;;;;;;;;9.80;86.00;;;;;;5057485;28;19981;-67
2022/05/02 07:14:44;;;;;;;;;;;9.80;85.90;;;;;;5062321;28;19933;-68
2022/05/02 07:17:16;;;;;;;;;;;9.80;86.00;;;;;;5057997;28;19935;-67
2022/05/02 07:19:49;;;;;;;;;;;9.80;86.00;;;;;;5057172;28;19963;-66
2022/05/02 07:22:20;;;;;;;;;;;9.80;86.00;;;;;;5060322;28;19976;-68
2022/05/02 07:24:52;;;;;;;;;;;9.80;86.00;;;;;;5052343;28;19932;-68
2022/05/02 07:27:26;;;;;;;;;;;9.90;86.20;;;;;;5061594;28;20016;-67
2022/05/02 07:29:57;;;;;;;;;;;9.90;86.20;;;;;;5056960;28;19959;-68
2022/05/02 07:32:24;;;;;;;;;;;9.90;86.30;;;;;;5051833;28;19932;-68
2022/05/02 07:34:52;;;;;;;;;;;9.90;86.30;;;;;;5062409;28;19940;-68
2022/05/02 07:37:20;;;;;;;;;;;9.90;86.40;;;;;;5062077;28;19935;-68
2022/05/02 07:39:49;;;;;;;;;;;10.00;86.40;;;;;;5065015;28;19954;-69
2022/05/02 07:42:16;;;;;;;;;;;10.00;86.40;;;;;;5063652;28;20003;-67
2022/05/02 07:44:44;;;;;;;;;;;10.00;86.30;;;;;;5062433;28;19932;-66
2022/05/02 07:47:11;;;;;;;;;;;10.00;86.50;;;;;;5063307;28;19935;-68
2022/05/02 07:49:39;;;;;;;;;;;10.00;86.60;;;;;;5062919;28;19929;-68
2022/05/02 07:52:06;;;;;;;;;;;10.10;86.70;;;;;;5064489;28;19929;-69
2022/05/02 07:54:36;;;;;;;;;;;10.10;86.70;;;;;;5060608;28;20409;-67
2022/05/02 07:57:07;;;;;;;;;;;10.10;86.80;;;;;;5061778;28;19929;-68
2022/05/02 07:59:34;;;;;;;;;;;10.10;86.90;;;;;;5062275;28;19963;-68
2022/05/02 08:02:01;;;;;;;;;;;10.20;86.90;;;;;;5056326;28;19929;-68
2022/05/02 08:04:28;;;;;;;;;;;10.20;86.80;;;;;;5060158;28;19932;-66
2022/05/02 08:07:00;;;;;;;;;;;10.20;86.80;;;;;;5057948;28;20043;-69
2022/05/02 08:09:39;;;;;;;;;;;10.30;86.70;;;;;;5060013;28;20276;-67
2022/05/02 08:12:13;;;;;;;;;;;10.30;86.70;;;;;;5060968;28;19929;-68
2022/05/02 08:14:43;;;;;;;;;;;10.30;86.70;;;;;;5054533;28;19936;-66
2022/05/02 08:17:18;;;;;;;;;;;10.40;86.70;;;;;;5063475;28;19929;-66
2022/05/02 08:19:52;;;;;;;;;;;10.40;86.80;;;;;;5063860;28;19924;-68
2022/05/02 08:28:01;;;;;;;;;;;10.40;86.30;;;;;;5061521;28;20688;-66
2022/05/02 08:30:32;;;;;;;;;;;10.50;86.20;;;;;;5061056;28;20771;-66
2022/05/02 08:33:04;;;;;;;;;;;10.60;86.30;;;;;;5060347;28;19936;-66
2022/05/02 08:35:45;;;;;;;;;;;10.60;86.20;;;;;;5057792;28;19928;-67
2022/05/02 08:38:33;;;;;;;;;;;10.60;86.10;;;;;;5061802;28;19928;-68
2022/05/02 08:41:19;;;;;;;;;;;10.70;86.20;;;;;;5052995;28;19936;-68
2022/05/02 08:44:06;;;;;;;;;;;10.70;86.30;;;;;;5055622;28;19932;-68
2022/05/02 08:46:47;;;;;;;;;;;10.80;86.40;;;;;;5018122;28;20396;-69
2022/05/02 08:49:36;;;;;;;;;;;10.80;86.40;;;;;;5064087;28;19924;-68
2022/05/02 08:52:36;;;;;;;;;;;10.80;86.30;;;;;;5062820;28;20042;-67
2022/05/02 08:55:17;;;;;;;;;;;10.90;86.30;;;;;;5054468;28;19936;-68
2022/05/02 08:58:05;;;;;;;;;;;11.00;86.40;;;;;;5046674;28;19928;-68
2022/05/02 09:00:39;;;;;;;;;;;11.00;86.20;;;;;;5058580;28;19971;-67
2022/05/02 09:03:23;;;;;;;;;;;11.10;86.00;;;;;;5061380;28;19929;-69
2022/05/02 09:06:14;;;;;;;;;;;11.20;86.00;;;;;;5053752;28;19929;-68
2022/05/02 09:09:11;;;;;;;;;;;11.20;85.80;;;;;;5051659;28;20392;-68
2022/05/02 09:11:51;;;;;;;;;;;11.30;85.70;;;;;;5061647;28;19935;-67
2022/05/02 09:14:36;;;;;;;;;;;11.30;85.50;;;;;;5055454;28;19931;-68
2022/05/02 09:17:15;;;;;;;;;;;11.40;85.30;;;;;;5054370;28;19925;-68
2022/05/02 09:19:52;;;;;;;;;;;11.40;85.30;;;;;;5062267;28;19932;-66
2022/05/02 09:22:31;;;;;;;;;;;11.60;85.20;;;;;;5060593;28;19932;-69
2022/05/02 09:25:03;;;;;;;;;;;11.60;85.10;;;;;;5054415;28;19935;-67
2022/05/02 09:27:43;;;;;;;;;;;11.70;84.80;;;;;;5061126;28;19975;-68
2022/05/02 09:30:26;;;;;;;;;;;11.70;84.70;;;;;;5059421;28;19932;-68
2022/05/02 09:33:03;;;;;;;;;;;11.80;84.50;;;;;;5054215;28;20423;-69
2022/05/02 09:35:31;;;;;;;;;;;11.90;84.50;;;;;;5062834;28;20011;-69
2022/05/02 09:37:58;;;;;;;;;;;11.90;84.40;;;;;;5054937;28;19933;-67
2022/05/02 09:40:37;;;;;;;;;;;12.00;84.50;;;;;;5058156;28;20388;-68
2022/05/02 09:43:15;;;;;;;;;;;12.10;84.30;;;;;;5062154;28;19928;-69
2022/05/02 09:51:49;;;;;;;;;;;12.30;83.80;;;;;;5063046;28;20094;-69
2022/05/02 09:56:37;;;;;;;;;;;12.30;83.70;;;;;;5059518;28;19932;-69
2022/05/02 09:57:09;;;;;;;;;;;12.40;83.50;;;;;;5059171;28;19931;-69
2022/05/02 09:59:41;;;;;;;;;;;12.50;83.40;;;;;;5060491;28;19956;-69
2022/05/02 10:02:15;;;;;;;;;;;12.60;83.50;;;;;;5060954;28;19928;-68
2022/05/02 10:04:48;;;;;;;;;;;12.60;83.20;;;;;;5056710;28;20311;-68
2022/05/02 10:07:16;;;;;;;;;;;12.80;83.00;;;;;;5056678;28;19935;-66
2022/05/02 10:09:49;;;;;;;;;;;12.80;82.70;;;;;;5055564;28;20392;-68
2022/05/02 10:12:18;;;;;;;;;;;12.90;82.50;;;;;;5062206;28;19929;-69
2022/05/02 10:14:57;;;;;;;;;;;13.00;82.30;;;;;;5060571;28;19932;-68
2022/05/02 10:17:42;;;;;;;;;;;13.10;82.90;;;;;;5059468;28;20001;-69
2022/05/02 10:20:15;;;;;;;;;;;13.20;82.00;;;;;;5057449;28;19928;-68
2022/05/02 10:22:47;;;;;;;;;;;13.20;81.70;;;;;;5061355;28;20395;-68
2022/05/02 10:25:18;;;;;;;;;;;13.30;81.70;;;;;;5061430;28;19932;-69
2022/05/02 10:28:05;;;;;;;;;;;13.40;81.60;;;;;;5061322;28;20380;-68
2022/05/02 10:30:41;;;;;;;;;;;13.40;81.30;;;;;;5059866;28;19944;-69
2022/05/02 10:33:13;;;;;;;;;;;13.60;81.00;;;;;;5058854;28;19936;-69
2022/05/02 10:35:42;;;;;;;;;;;13.60;80.60;;;;;;5059758;28;19932;-68
2022/05/02 10:38:09;;;;;;;;;;;13.70;80.50;;;;;;5053768;28;19939;-69
2022/05/02 10:40:38;;;;;;;;;;;13.80;80.40;;;;;;5053608;28;20384;-69
2022/05/02 10:43:05;;;;;;;;;;;13.80;80.00;;;;;;5059807;28;19931;-68
2022/05/02 10:45:33;;;;;;;;;;;13.90;80.00;;;;;;5061040;28;19925;-68
2022/05/02 10:48:11;;;;;;;;;;;14.00;79.80;;;;;;5056882;28;21520;-70
2022/05/02 10:50:38;;;;;;;;;;;14.00;79.50;;;;;;5061171;28;19956;-69
2022/05/02 10:53:19;;;;;;;;;;;14.10;79.50;;;;;;5060048;28;19928;-69
2022/05/02 10:55:51;;;;;;;;;;;14.20;79.50;;;;;;5054267;28;19940;-69
2022/05/02 10:58:18;;;;;;;;;;;14.20;79.30;;;;;;5056134;28;20036;-70
2022/05/02 11:00:52;;;;;;;;;;;14.30;79.20;;;;;;5056239;28;19929;-69
2022/05/02 11:03:26;;;;;;;;;;;14.40;79.00;;;;;;5054440;28;19928;-69
2022/05/02 11:05:57;;;;;;;;;;;14.50;78.80;;;;;;5045909;28;19968;-69
2022/05/02 11:08:29;;;;;;;;;;;14.50;78.80;;;;;;5055894;28;19936;-69
2022/05/02 11:10:57;;;;;;;;;;;14.60;78.70;;;;;;5060332;28;19932;-69
2022/05/02 11:13:26;;;;;;;;;;;14.70;78.50;;;;;;5059221;28;19929;-69
2022/05/02 11:16:00;;;;;;;;;;;14.80;78.20;;;;;;5055712;28;19943;-69
2022/05/02 11:21:24;;;;;;;;;;;14.90;77.80;;;;;;5054016;28;20018;-68
2022/05/02 11:24:02;;;;;;;;;;;15.00;77.30;;;;;;5055556;28;20015;-70
2022/05/02 11:26:37;;;;;;;;;;;15.10;77.30;;;;;;5057434;28;19928;-70
2022/05/02 11:29:12;;;;;;;;;;;15.20;77.20;;;;;;5060683;28;19928;-70
2022/05/02 11:31:41;;;;;;;;;;;15.30;77.00;;;;;;5054005;28;19982;-69
2022/05/02 11:34:19;;;;;;;;;;;15.30;76.80;;;;;;5052920;28;20450;-69
2022/05/02 11:36:47;;;;;;;;;;;15.40;76.60;;;;;;5056450;28;21689;-68
2022/05/02 11:39:16;;;;;;;;;;;15.40;76.30;;;;;;5059164;28;19929;-68
2022/05/02 11:41:44;;;;;;;;;;;15.50;76.20;;;;;;5052395;28;19929;-68
2022/05/02 11:44:11;;;;;;;;;;;15.60;76.00;;;;;;5061582;28;19938;-69
2022/05/02 11:46:54;;;;;;;;;;;15.70;75.90;;;;;;5060223;28;20110;-69
2022/05/02 11:49:29;;;;;;;;;;;15.70;75.60;;;;;;5060936;28;19936;-69
2022/05/02 11:51:58;;;;;;;;;;;15.80;75.50;;;;;;5053382;28;19928;-69
2022/05/02 11:54:33;;;;;;;;;;;15.80;75.30;;;;;;5057062;28;19936;-69
2022/05/02 11:57:03;;;;;;;;;;;15.90;75.30;;;;;;5056854;28;19932;-70
2022/05/02 11:59:38;;;;;;;;;;;15.90;74.80;;;;;;5056343;28;19929;-70
2022/05/02 12:02:07;;;;;;;;;;;16.00;74.60;;;;;;5059324;28;20400;-69
2022/05/02 12:04:36;;;;;;;;;;;16.10;74.60;;;;;;5055269;28;20602;-69
2022/05/02 12:07:05;;;;;;;;;;;16.10;74.20;;;;;;5058442;28;19935;-69
2022/05/02 12:09:34;;;;;;;;;;;16.20;74.10;;;;;;5055831;28;19932;-69
2022/05/02 12:12:04;;;;;;;;;;;16.30;74.00;;;;;;5057481;28;20693;-68
2022/05/02 12:14:31;;;;;;;;;;;16.40;73.70;;;;;;5052126;28;19932;-69
2022/05/02 12:17:06;;;;;;;;;;;16.50;72.70;;;;;;5058339;28;20100;-69
2022/05/02 12:19:33;;;;;;;;;;;16.50;72.90;;;;;;5057035;28;19928;-69
2022/05/02 12:22:02;;;;;;;;;;;16.60;73.00;;;;;;5054903;28;19954;-70
2022/05/02 12:24:33;;;;;;;;;;;16.70;72.90;;;;;;5063841;28;19928;-71
2022/05/02 12:26:59;;;;;;;;;;;16.70;72.50;;;;;;5052535;28;20045;-69
2022/05/02 12:29:27;;;;;;;;;;;16.80;72.40;;;;;;5057415;28;19951;-69
2022/05/02 12:31:55;;;;;;;;;;;16.80;72.20;;;;;;5058632;28;19932;-69
2022/05/02 12:34:24;;;;;;;;;;;16.90;71.90;;;;;;5053465;28;20451;-68
2022/05/02 12:36:51;;;;;;;;;;;16.90;71.80;;;;;;5058538;28;19928;-69
2022/05/02 12:39:20;;;;;;;;;;;17.00;71.60;;;;;;5056919;28;19936;-69
2022/05/02 12:41:47;;;;;;;;;;;17.10;71.40;;;;;;5056623;28;19932;-66
2022/05/02 12:44:14;;;;;;;;;;;17.10;71.20;;;;;;5052377;28;19928;-70
2022/05/02 12:46:44;;;;;;;;;;;17.20;71.10;;;;;;5053052;28;20181;-68
2022/05/02 12:49:12;;;;;;;;;;;17.30;71.00;;;;;;5056666;28;19979;-68
2022/05/02 12:51:38;;;;;;;;;;;17.30;70.80;;;;;;5060995;28;19936;-70
2022/05/02 12:54:12;;;;;;;;;;;17.40;70.80;;;;;;5058638;28;19963;-69
2022/05/02 13:00:30;;;;;;;;;;;17.50;70.60;;;;;;5056918;28;19932;-68
2022/05/02 13:02:41;;;;;;;;;;;17.50;70.10;;;;;;5055208;28;20192;-69
2022/05/02 13:05:09;;;;;;;;;;;17.60;70.00;;;;;;5044519;28;19984;-69
2022/05/02 13:07:40;;;;;;;;;;;17.60;69.80;;;;;;5059333;28;19928;-69
2022/05/02 13:10:14;;;;;;;;;;;17.60;69.70;;;;;;5053828;28;19928;-68
2022/05/02 13:12:53;;;;;;;;;;;17.70;69.70;;;;;;5055010;28;20295;-69
2022/05/02 13:15:20;;;;;;;;;;;17.70;69.60;;;;;;5063256;28;19935;-69
2022/05/02 13:17:49;;;;;;;;;;;17.70;69.00;;;;;;5060997;28;19951;-67
2022/05/02 13:20:15;;;;;;;;;;;17.80;68.80;;;;;;5060420;28;20006;-69
2022/05/02 13:22:57;;;;;;;;;;;17.80;68.40;;;;;;5052225;28;19938;-69
2022/05/02 13:25:43;;;;;;;;;;;17.90;68.60;;;;;;5055110;28;19928;-69
2022/05/02 13:28:17;;;;;;;;;;;18.00;68.60;;;;;;5055452;28;20016;-69
2022/05/02 13:30:44;;;;;;;;;;;18.00;68.30;;;;;;5053211;28;20327;-70
2022/05/02 13:33:14;;;;;;;;;;;18.00;68.30;;;;;;5053165;28;19937;-69
2022/05/02 13:35:41;;;;;;;;;;;18.10;68.30;;;;;;5060013;28;19929;-68
2022/05/02 13:38:08;;;;;;;;;;;18.10;67.80;;;;;;5058466;28;20025;-70
2022/05/02 13:40:55;;;;;;;;;;;18.20;67.80;;;;;;5056768;28;19959;-67
2022/05/02 13:43:34;;;;;;;;;;;18.30;67.50;;;;;;5048730;28;20020;-69
2022/05/02 13:46:09;;;;;;;;;;;18.30;67.40;;;;;;5057896;28;19932;-69
2022/05/02 13:48:37;;;;;;;;;;;18.30;67.40;;;;;;5053724;28;20523;-70
2022/05/02 13:51:05;;;;;;;;;;;18.40;67.20;;;;;;5054281;28;19971;-69
2022/05/02 13:53:36;;;;;;;;;;;18.40;66.80;;;;;;5055334;28;19939;-68
2022/05/02 13:56:07;;;;;;;;;;;18.40;66.90;;;;;;5051693;28;19935;-68
2022/05/02 13:58:43;;;;;;;;;;;18.50;66.70;;;;;;5061013;28;19935;-70
2022/05/02 14:01:32;;;;;;;;;;;18.60;66.40;;;;;;5061293;28;20976;-69
2022/05/02 14:04:02;;;;;;;;;;;18.70;66.30;;;;;;5053885;28;19976;-70
2022/05/02 14:06:38;;;;;;;;;;;18.80;66.20;;;;;;5060710;28;19932;-68
2022/05/02 14:09:05;;;;;;;;;;;18.90;64.80;;;;;;5059482;28;20411;-70
2022/05/02 14:11:31;;;;;;;;;;;18.90;65.40;;;;;;5059370;28;21180;-69
2022/05/02 14:14:06;;;;;;;;;;;19.10;65.30;;;;;;5058579;28;19935;-68
2022/05/02 14:16:34;;;;;;;;;;;19.10;65.00;;;;;;5059792;28;20394;-70
2022/05/02 14:19:02;;;;;;;;;;;19.20;64.80;;;;;;5057552;28;19932;-68
2022/05/02 14:21:30;;;;;;;;;;;19.30;64.50;;;;;;5051996;28;20483;-69
2022/05/02 14:23:57;;;;;;;;;;;19.30;64.00;;;;;;5061643;28;20023;-68
2022/05/02 14:26:24;;;;;;;;;;;19.40;64.00;;;;;;5059136;28;20459;-69
2022/05/02 14:28:52;;;;;;;;;;;19.40;63.90;;;;;;5056924;28;20014;-67
2022/05/02 14:31:21;;;;;;;;;;;19.40;63.70;;;;;;5051340;28;19932;-69
2022/05/02 14:33:48;;;;;;;;;;;19.50;63.70;;;;;;5056482;28;19936;-69
2022/05/02 14:36:16;;;;;;;;;;;19.60;63.40;;;;;;5060701;28;19935;-69
2022/05/02 14:38:43;;;;;;;;;;;19.60;63.30;;;;;;5051089;28;19940;-68
2022/05/02 14:41:10;;;;;;;;;;;19.70;63.30;;;;;;5054129;28;20403;-70
2022/05/02 14:43:37;;;;;;;;;;;19.70;63.10;;;;;;5046098;28;20030;-70
2022/05/02 14:46:04;;;;;;;;;;;19.60;62.70;;;;;;5053714;28;19939;-69
2022/05/02 14:48:33;;;;;;;;;;;19.70;62.40;;;;;;5055711;28;19971;-69
2022/05/02 14:51:04;;;;;;;;;;;19.70;62.20;;;;;;5053833;28;19924;-69
2022/05/02 14:53:35;;;;;;;;;;;19.70;62.30;;;;;;5057179;28;20737;-69
2022/05/02 14:56:02;;;;;;;;;;;19.70;62.30;;;;;;5050840;28;19928;-69
2022/05/02 14:58:29;;;;;;;;;;;19.70;62.30;;;;;;5055934;28;20423;-68
2022/05/02 15:00:59;;;;;;;;;;;19.70;62.30;;;;;;5056200;28;19982;-69
2022/05/02 15:03:27;;;;;;;;;;;19.70;62.20;;;;;;5057788;28;20316;-69
2022/05/02 15:05:56;;;;;;;;;;;19.70;62.00;;;;;;5049014;28;19943;-68
2022/05/02 15:08:44;;;;;;;;;;;19.80;62.20;;;;;;5055884;28;19933;-66
2022/05/02 15:11:16;;;;;;;;;;;19.80;62.20;;;;;;5049589;28;19932;-68